Time;durP1;ratioP1;P1;durP2;ratioP2;P2;SDS_P1;SDS_P2;PMS_P1;PMS_P2;Temp;Humidity;BMP_temperature;BMP_pressure;BME280_temperature;BME280_humidity;BME280_pressure;Samples;Min_cycle;Max_cycle;Signal;HPM_P1;HPM_P2
2021/03/19 05:00:22;;;;;;;;;;;3.40;99.90;;;;;;6071261;22;20316;-68
2021/03/19 05:02:49;;;;;;;;;;;3.40;99.90;;;;;;4997220;28;19930;-67
2021/03/19 05:05:16;;;;;;;;;;;3.40;99.90;;;;;;4997415;28;19926;-69
2021/03/19 05:07:42;;;;;;;;;;;3.40;99.90;;;;;;5032408;23;19925;-66
2021/03/19 05:10:09;;;;;;;;;;;3.30;99.90;;;;;;5036347;28;20392;-68
2021/03/19 05:12:35;;;;;;;;;;;3.30;99.90;;;;;;5036192;28;19972;-68
2021/03/19 05:15:01;;;;;;;;;;;3.30;99.90;;;;;;5036401;28;20272;-67
2021/03/19 05:17:30;;;;;;;;;;;3.30;99.90;;;;;;5036210;28;19925;-69
2021/03/19 05:19:56;;;;;;;;;;;3.30;99.90;;;;;;5036019;28;19926;-67
2021/03/19 05:22:22;;;;;;;;;;;3.30;99.90;;;;;;5036689;28;19929;-68
2021/03/19 05:24:48;;;;;;;;;;;3.30;99.90;;;;;;5036375;28;20392;-67
2021/03/19 05:27:14;;;;;;;;;;;3.40;99.90;;;;;;5036677;28;19945;-68
2021/03/19 05:29:40;;;;;;;;;;;3.40;99.90;;;;;;5036361;28;20434;-68
2021/03/19 05:32:07;;;;;;;;;;;3.40;99.90;;;;;;5037092;28;20295;-68
2021/03/19 05:34:33;;;;;;;;;;;3.40;99.90;;;;;;5036467;28;19925;-67
2021/03/19 05:37:00;;;;;;;;;;;3.30;99.90;;;;;;5036855;28;19933;-69
2021/03/19 05:39:26;;;;;;;;;;;3.40;99.90;;;;;;5036822;28;19995;-67
2021/03/19 05:41:52;;;;;;;;;;;3.40;99.90;;;;;;5036653;28;19925;-67
2021/03/19 05:44:19;;;;;;;;;;;3.40;99.90;;;;;;5036065;28;19983;-68
2021/03/19 05:46:47;;;;;;;;;;;3.40;99.90;;;;;;5035963;28;19925;-69
2021/03/19 05:49:17;;;;;;;;;;;3.50;99.90;;;;;;5035894;28;19926;-67
2021/03/19 05:51:44;;;;;;;;;;;3.60;99.90;;;;;;5035442;28;19925;-67
2021/03/19 05:54:14;;;;;;;;;;;3.60;99.90;;;;;;5035660;28;19926;-67
2021/03/19 05:56:41;;;;;;;;;;;3.60;99.90;;;;;;5035679;28;20303;-68
2021/03/19 05:59:07;;;;;;;;;;;3.70;99.90;;;;;;5035352;28;19932;-68
2021/03/19 06:01:34;;;;;;;;;;;3.50;99.90;;;;;;5036091;28;19925;-70
2021/03/19 06:04:00;;;;;;;;;;;3.50;99.90;;;;;;5035484;28;19925;-67
2021/03/19 06:06:41;;;;;;;;;;;3.50;99.90;;;;;;5035819;28;19932;-65
2021/03/19 06:09:21;;;;;;;;;;;3.80;99.90;;;;;;5035878;28;19937;-67
2021/03/19 06:11:48;;;;;;;;;;;4.00;99.90;;;;;;5036161;28;19925;-68
2021/03/19 06:14:15;;;;;;;;;;;4.10;99.90;;;;;;5036735;28;19936;-71
2021/03/19 06:16:43;;;;;;;;;;;4.10;99.90;;;;;;5035700;28;19932;-70
2021/03/19 06:19:30;;;;;;;;;;;4.10;99.90;;;;;;5035866;28;19925;-68
2021/03/19 06:22:05;;;;;;;;;;;4.10;99.90;;;;;;5034985;28;19925;-68
2021/03/19 06:24:32;;;;;;;;;;;4.00;99.90;;;;;;5034961;28;20387;-68
2021/03/19 06:27:10;;;;;;;;;;;4.00;99.90;;;;;;5034693;28;19925;-68
2021/03/19 06:29:43;;;;;;;;;;;4.00;99.90;;;;;;5034463;28;19975;-68
2021/03/19 06:32:14;;;;;;;;;;;3.90;99.90;;;;;;5035898;28;19925;-70
2021/03/19 06:34:55;;;;;;;;;;;3.80;99.90;;;;;;5034054;28;19925;-67
2021/03/19 06:37:25;;;;;;;;;;;3.80;99.90;;;;;;5034286;28;19925;-67
2021/03/19 06:39:54;;;;;;;;;;;3.60;99.90;;;;;;5034744;28;19925;-67
2021/03/19 06:42:28;;;;;;;;;;;3.70;99.90;;;;;;5034307;28;19932;-67
2021/03/19 06:45:01;;;;;;;;;;;3.50;99.90;;;;;;5034754;28;19928;-67
2021/03/19 06:47:36;;;;;;;;;;;3.70;99.90;;;;;;5034459;28;19979;-68
2021/03/19 06:50:02;;;;;;;;;;;3.70;99.90;;;;;;5034157;28;20442;-68
2021/03/19 06:52:28;;;;;;;;;;;3.80;99.90;;;;;;5034316;28;19925;-67
2021/03/19 06:54:58;;;;;;;;;;;3.90;99.90;;;;;;5033773;28;20414;-68
2021/03/19 06:57:25;;;;;;;;;;;3.80;99.90;;;;;;5034079;28;19979;-68
2021/03/19 06:59:52;;;;;;;;;;;3.90;99.90;;;;;;5033156;28;19929;-68
2021/03/19 07:02:31;;;;;;;;;;;4.00;99.90;;;;;;5034195;28;20023;-67
2021/03/19 07:05:00;;;;;;;;;;;4.00;99.90;;;;;;5034240;28;20275;-67
2021/03/19 07:07:40;;;;;;;;;;;4.20;99.90;;;;;;5033937;28;19925;-67
2021/03/19 07:10:28;;;;;;;;;;;4.50;99.90;;;;;;5034028;28;20383;-67
2021/03/19 07:12:58;;;;;;;;;;;4.60;99.90;;;;;;5034200;28;19948;-67
2021/03/19 07:15:31;;;;;;;;;;;4.90;99.90;;;;;;5034104;28;19979;-67
2021/03/19 07:17:58;;;;;;;;;;;5.20;99.90;;;;;;5034094;28;20296;-67
2021/03/19 07:20:34;;;;;;;;;;;5.10;99.90;;;;;;5034005;28;19932;-68
2021/03/19 07:23:04;;;;;;;;;;;5.20;99.90;;;;;;5034118;28;19925;-68
2021/03/19 07:25:45;;;;;;;;;;;5.10;99.90;;;;;;5033816;28;20387;-68
2021/03/19 07:28:31;;;;;;;;;;;4.80;99.90;;;;;;5033972;28;19925;-68
2021/03/19 07:31:05;;;;;;;;;;;4.60;99.90;;;;;;5033819;28;20418;-68
2021/03/19 07:33:39;;;;;;;;;;;4.60;99.90;;;;;;5033955;28;19933;-68
2021/03/19 07:36:13;;;;;;;;;;;4.40;99.90;;;;;;5033920;28;19933;-68
2021/03/19 07:39:03;;;;;;;;;;;4.20;99.90;;;;;;5033541;28;19925;-68
2021/03/19 07:41:36;;;;;;;;;;;4.00;99.90;;;;;;5018328;28;19980;-68
2021/03/19 07:44:14;;;;;;;;;;;3.90;99.90;;;;;;5033906;28;19925;-68
2021/03/19 07:46:46;;;;;;;;;;;3.90;99.90;;;;;;5033538;28;19925;-67
2021/03/19 07:49:29;;;;;;;;;;;3.90;99.90;;;;;;5033410;28;19925;-68
2021/03/19 07:51:59;;;;;;;;;;;4.00;99.90;;;;;;5033697;28;19929;-68
2021/03/19 07:54:26;;;;;;;;;;;4.10;99.90;;;;;;5033311;28;19929;-67
2021/03/19 07:56:59;;;;;;;;;;;4.00;99.90;;;;;;5033666;28;19975;-67
2021/03/19 07:59:29;;;;;;;;;;;4.00;99.90;;;;;;5033588;28;20019;-69
2021/03/19 08:02:01;;;;;;;;;;;4.10;99.90;;;;;;5033636;28;19936;-68
2021/03/19 08:04:33;;;;;;;;;;;4.10;99.90;;;;;;5033813;28;19925;-68
2021/03/19 08:07:07;;;;;;;;;;;4.00;99.90;;;;;;5035675;28;19932;-69
2021/03/19 08:09:40;;;;;;;;;;;3.90;99.90;;;;;;5033710;28;20380;-68
2021/03/19 08:12:10;;;;;;;;;;;3.80;99.90;;;;;;5037957;28;19932;-68
2021/03/19 08:14:45;;;;;;;;;;;3.70;99.90;;;;;;5036941;28;19925;-68
2021/03/19 08:17:20;;;;;;;;;;;3.70;99.90;;;;;;5037106;28;19987;-68
2021/03/19 08:19:50;;;;;;;;;;;3.80;99.90;;;;;;5036735;28;20284;-69
2021/03/19 08:22:19;;;;;;;;;;;3.80;99.90;;;;;;5036985;28;19995;-69
2021/03/19 08:24:49;;;;;;;;;;;3.80;99.90;;;;;;5037012;28;19932;-69
2021/03/19 08:27:22;;;;;;;;;;;4.00;99.90;;;;;;5036695;28;20396;-68
2021/03/19 08:29:53;;;;;;;;;;;4.00;99.90;;;;;;5036575;28;20430;-68
2021/03/19 08:32:25;;;;;;;;;;;3.90;99.90;;;;;;5037019;28;19925;-69
2021/03/19 08:34:57;;;;;;;;;;;3.80;99.90;;;;;;5036633;28;19925;-68
2021/03/19 08:37:30;;;;;;;;;;;3.90;99.90;;;;;;5036636;28;19929;-68
2021/03/19 08:39:58;;;;;;;;;;;4.00;99.90;;;;;;5036674;28;19979;-68
2021/03/19 08:42:33;;;;;;;;;;;4.00;99.90;;;;;;5036876;28;19932;-68
2021/03/19 08:45:00;;;;;;;;;;;4.20;99.90;;;;;;5036717;28;19977;-68
2021/03/19 08:47:28;;;;;;;;;;;4.40;99.90;;;;;;5036629;28;19925;-68
2021/03/19 08:49:56;;;;;;;;;;;4.50;99.90;;;;;;5036458;28;20438;-69
2021/03/19 08:52:24;;;;;;;;;;;4.70;99.90;;;;;;5036461;28;19974;-68
2021/03/19 08:55:04;;;;;;;;;;;4.90;99.90;;;;;;5036520;28;19925;-69
2021/03/19 08:57:32;;;;;;;;;;;5.10;99.90;;;;;;5036167;28;19925;-68
2021/03/19 08:59:58;;;;;;;;;;;5.40;99.90;;;;;;5036734;28;19932;-69
2021/03/19 09:02:43;;;;;;;;;;;5.40;99.90;;;;;;5036411;28;19932;-69
2021/03/19 09:05:29;;;;;;;;;;;5.40;99.90;;;;;;5036632;28;20011;-69
2021/03/19 09:08:14;;;;;;;;;;;5.30;99.90;;;;;;5036124;28;19936;-69
2021/03/19 09:11:00;;;;;;;;;;;5.10;99.90;;;;;;5035906;28;19948;-69
2021/03/19 09:13:27;;;;;;;;;;;5.10;99.90;;;;;;5036144;28;19929;-69
2021/03/19 09:15:54;;;;;;;;;;;5.00;99.90;;;;;;5036225;28;20272;-68
2021/03/19 09:18:42;;;;;;;;;;;5.00;99.90;;;;;;5035982;28;19932;-69
2021/03/19 09:21:12;;;;;;;;;;;4.90;99.90;;;;;;5035861;28;19925;-69
2021/03/19 09:23:57;;;;;;;;;;;4.70;99.90;;;;;;5035583;28;19947;-69
2021/03/19 09:26:38;;;;;;;;;;;4.80;99.90;;;;;;5036391;28;19964;-69
2021/03/19 09:29:21;;;;;;;;;;;4.90;99.90;;;;;;5033554;28;19929;-68
2021/03/19 09:31:48;;;;;;;;;;;5.40;99.90;;;;;;5035608;28;19925;-69
2021/03/19 09:34:17;;;;;;;;;;;5.40;99.90;;;;;;5035477;28;20372;-70
2021/03/19 09:36:54;;;;;;;;;;;5.70;99.90;;;;;;5035883;28;20039;-70
2021/03/19 09:39:38;;;;;;;;;;;5.90;99.90;;;;;;5036134;28;19951;-68
2021/03/19 09:42:04;;;;;;;;;;;6.00;99.90;;;;;;5039668;28;20368;-69
2021/03/19 09:44:31;;;;;;;;;;;5.90;99.90;;;;;;5035795;28;19925;-70
2021/03/19 09:46:58;;;;;;;;;;;5.80;99.90;;;;;;5035823;28;19991;-69
2021/03/19 09:49:25;;;;;;;;;;;5.80;99.90;;;;;;5036014;28;19925;-69
2021/03/19 09:51:51;;;;;;;;;;;5.70;99.90;;;;;;5035474;28;20296;-69
2021/03/19 09:54:19;;;;;;;;;;;5.80;99.90;;;;;;5035455;28;19925;-69
2021/03/19 09:56:46;;;;;;;;;;;5.70;99.90;;;;;;5035313;28;20019;-69
2021/03/19 09:59:18;;;;;;;;;;;5.60;99.90;;;;;;5035309;28;19925;-69
2021/03/19 10:01:45;;;;;;;;;;;5.50;99.90;;;;;;5035399;28;19976;-69
2021/03/19 10:04:25;;;;;;;;;;;5.40;99.90;;;;;;5035383;28;20016;-68
2021/03/19 10:06:51;;;;;;;;;;;5.30;99.90;;;;;;5035245;28;19925;-68
2021/03/19 10:09:18;;;;;;;;;;;5.40;99.90;;;;;;5034813;28;19925;-68
2021/03/19 10:11:51;;;;;;;;;;;5.40;99.90;;;;;;5035778;28;19932;-68
2021/03/19 10:14:20;;;;;;;;;;;5.30;99.90;;;;;;5034955;28;19925;-68
2021/03/19 10:16:47;;;;;;;;;;;5.40;99.90;;;;;;5035264;28;20315;-68
2021/03/19 10:19:14;;;;;;;;;;;5.40;99.90;;;;;;5034823;28;19932;-68
2021/03/19 10:21:42;;;;;;;;;;;5.50;99.90;;;;;;5035054;28;19932;-69
2021/03/19 10:24:09;;;;;;;;;;;5.90;99.90;;;;;;5035279;28;19925;-69
2021/03/19 10:26:36;;;;;;;;;;;6.30;99.90;;;;;;5035269;28;19925;-70
2021/03/19 10:29:06;;;;;;;;;;;6.10;99.90;;;;;;5034860;28;19948;-68
2021/03/19 10:31:36;;;;;;;;;;;5.80;99.90;;;;;;5034557;28;19925;-68
2021/03/19 10:34:04;;;;;;;;;;;5.70;99.90;;;;;;5034566;28;19925;-68
2021/03/19 10:36:34;;;;;;;;;;;5.60;99.90;;;;;;5035052;28;19995;-68
2021/03/19 10:39:04;;;;;;;;;;;5.50;99.90;;;;;;5034587;28;19929;-69
2021/03/19 10:41:32;;;;;;;;;;;5.60;99.90;;;;;;5035460;28;19925;-68
2021/03/19 10:44:01;;;;;;;;;;;5.60;99.90;;;;;;5034488;28;19932;-68
2021/03/19 10:46:32;;;;;;;;;;;5.50;99.90;;;;;;5034371;28;19971;-68
2021/03/19 10:48:59;;;;;;;;;;;5.20;99.90;;;;;;5034350;28;19925;-68
2021/03/19 10:51:36;;;;;;;;;;;5.30;99.90;;;;;;5034560;28;20039;-68
2021/03/19 10:54:09;;;;;;;;;;;5.70;99.90;;;;;;5034217;28;19932;-69
2021/03/19 10:56:43;;;;;;;;;;;6.70;99.90;;;;;;5035158;28;19925;-69
2021/03/19 10:59:11;;;;;;;;;;;7.10;99.90;;;;;;5034334;28;19947;-69
2021/03/19 11:01:38;;;;;;;;;;;7.10;99.90;;;;;;5033957;28;19932;-67
2021/03/19 11:04:06;;;;;;;;;;;7.20;99.90;;;;;;5033939;28;19940;-69
2021/03/19 11:06:40;;;;;;;;;;;7.40;99.90;;;;;;5033903;28;19925;-68
2021/03/19 11:09:09;;;;;;;;;;;7.80;99.90;;;;;;5034423;28;19999;-67
2021/03/19 11:11:35;;;;;;;;;;;8.10;99.90;;;;;;5033993;28;19976;-68
2021/03/19 11:14:02;;;;;;;;;;;8.30;99.90;;;;;;5034478;28;19925;-68
2021/03/19 11:16:30;;;;;;;;;;;8.30;99.90;;;;;;5034552;28;19925;-68
2021/03/19 11:19:02;;;;;;;;;;;8.10;99.90;;;;;;5036687;28;19929;-67
2021/03/19 11:21:29;;;;;;;;;;;7.70;99.90;;;;;;5033683;28;20376;-68
2021/03/19 11:24:03;;;;;;;;;;;7.40;99.90;;;;;;5033846;28;20406;-68
2021/03/19 11:26:31;;;;;;;;;;;6.90;99.90;;;;;;5034084;28;19925;-68
2021/03/19 11:29:08;;;;;;;;;;;6.90;99.90;;;;;;5033913;28;20011;-68
2021/03/19 11:31:34;;;;;;;;;;;6.20;99.90;;;;;;5033779;28;20299;-68
2021/03/19 11:34:05;;;;;;;;;;;5.90;99.90;;;;;;5033883;28;19925;-68
2021/03/19 11:36:46;;;;;;;;;;;5.90;99.90;;;;;;5033753;28;19925;-68
2021/03/19 11:39:14;;;;;;;;;;;5.80;99.90;;;;;;5033773;28;19925;-66
2021/03/19 11:41:42;;;;;;;;;;;5.90;99.90;;;;;;5033794;28;19925;-66
2021/03/19 11:44:09;;;;;;;;;;;5.80;99.90;;;;;;5033774;28;19925;-67
2021/03/19 11:46:35;;;;;;;;;;;5.30;99.90;;;;;;5036845;28;19926;-67
2021/03/19 11:49:01;;;;;;;;;;;5.20;99.90;;;;;;5038131;28;19925;-66
2021/03/19 11:51:30;;;;;;;;;;;5.10;99.90;;;;;;5038083;28;19947;-67
2021/03/19 11:53:57;;;;;;;;;;;4.90;99.90;;;;;;5037691;28;19925;-68
2021/03/19 11:56:24;;;;;;;;;;;4.60;99.90;;;;;;5037800;28;19925;-67
2021/03/19 11:58:51;;;;;;;;;;;4.60;99.90;;;;;;5037684;28;19925;-67
2021/03/19 12:01:17;;;;;;;;;;;4.50;99.90;;;;;;5037759;28;19979;-67
2021/03/19 12:03:44;;;;;;;;;;;4.60;99.90;;;;;;5037731;28;19975;-67
2021/03/19 12:06:12;;;;;;;;;;;4.40;99.90;;;;;;5037941;28;20299;-67
2021/03/19 12:08:39;;;;;;;;;;;4.40;99.90;;;;;;5037417;28;19933;-68
2021/03/19 12:11:06;;;;;;;;;;;4.40;99.90;;;;;;5037242;28;19929;-67
2021/03/19 12:13:34;;;;;;;;;;;4.40;99.90;;;;;;5036894;28;20443;-67
2021/03/19 12:16:00;;;;;;;;;;;4.30;99.90;;;;;;5037363;28;19925;-67
2021/03/19 12:18:27;;;;;;;;;;;4.30;99.90;;;;;;5036679;28;20027;-67
2021/03/19 12:20:53;;;;;;;;;;;4.40;99.90;;;;;;5037049;28;19933;-67
2021/03/19 12:23:20;;;;;;;;;;;4.50;99.90;;;;;;5037908;28;19925;-66
2021/03/19 12:25:46;;;;;;;;;;;4.40;99.90;;;;;;5037189;28;19936;-68
2021/03/19 12:28:16;;;;;;;;;;;4.50;99.90;;;;;;5036749;28;20388;-68
2021/03/19 12:30:43;;;;;;;;;;;4.70;99.90;;;;;;5037503;28;19929;-67
2021/03/19 12:33:09;;;;;;;;;;;4.80;99.90;;;;;;5037250;28;19948;-67
2021/03/19 12:35:38;;;;;;;;;;;4.90;99.90;;;;;;5036841;28;19936;-67
2021/03/19 12:38:04;;;;;;;;;;;4.80;99.90;;;;;;5037279;28;19926;-69
2021/03/19 12:40:30;;;;;;;;;;;4.90;99.90;;;;;;5036500;28;19970;-69
2021/03/19 12:42:57;;;;;;;;;;;4.80;99.90;;;;;;5037078;28;19937;-68
2021/03/19 12:45:24;;;;;;;;;;;4.90;99.90;;;;;;5036633;28;20300;-67
2021/03/19 12:47:50;;;;;;;;;;;4.90;99.90;;;;;;5037118;28;19925;-67
2021/03/19 12:50:18;;;;;;;;;;;5.00;99.90;;;;;;5036744;28;19925;-69
2021/03/19 12:52:44;;;;;;;;;;;5.20;99.90;;;;;;5039483;28;19958;-67
2021/03/19 12:55:10;;;;;;;;;;;4.90;99.90;;;;;;5039211;28;19937;-67
2021/03/19 12:57:36;;;;;;;;;;;4.80;99.90;;;;;;5037408;28;19925;-68
2021/03/19 13:00:03;;;;;;;;;;;4.90;99.90;;;;;;5036879;28;19932;-68
2021/03/19 13:02:30;;;;;;;;;;;4.90;99.90;;;;;;5036497;28;19925;-68
2021/03/19 13:04:57;;;;;;;;;;;5.00;99.90;;;;;;5036588;28;19979;-67
2021/03/19 13:07:23;;;;;;;;;;;5.00;99.90;;;;;;5036342;28;19948;-67
2021/03/19 13:09:49;;;;;;;;;;;5.10;99.90;;;;;;5036517;28;19925;-66
2021/03/19 13:12:16;;;;;;;;;;;5.10;99.90;;;;;;5036420;28;19925;-68
2021/03/19 13:14:43;;;;;;;;;;;5.30;99.90;;;;;;5036247;28;19929;-67
2021/03/19 13:17:09;;;;;;;;;;;5.50;99.90;;;;;;5036283;28;19933;-69
2021/03/19 13:19:35;;;;;;;;;;;5.60;99.90;;;;;;5036193;28;19925;-68
2021/03/19 13:22:02;;;;;;;;;;;5.70;99.90;;;;;;5036406;28;19925;-68
2021/03/19 13:24:28;;;;;;;;;;;5.80;99.90;;;;;;5036702;28;19925;-67
2021/03/19 13:26:54;;;;;;;;;;;5.90;99.90;;;;;;5036368;28;19925;-68
2021/03/19 13:29:20;;;;;;;;;;;6.10;99.90;;;;;;5035974;28;19925;-68
2021/03/19 13:31:47;;;;;;;;;;;6.20;99.90;;;;;;5035898;28;20316;-68
2021/03/19 13:34:13;;;;;;;;;;;6.40;99.90;;;;;;5036358;28;19925;-68
2021/03/19 13:36:39;;;;;;;;;;;6.40;99.90;;;;;;5036120;28;19925;-68
2021/03/19 13:39:08;;;;;;;;;;;6.40;99.90;;;;;;5035942;28;19926;-67
2021/03/19 13:41:36;;;;;;;;;;;6.40;99.90;;;;;;5035973;28;19932;-67
2021/03/19 13:44:03;;;;;;;;;;;6.30;99.90;;;;;;5036040;28;19932;-68
2021/03/19 13:46:29;;;;;;;;;;;6.50;99.90;;;;;;5035673;28;19999;-68
2021/03/19 13:48:55;;;;;;;;;;;6.70;99.90;;;;;;5035237;28;20289;-67
2021/03/19 13:51:21;;;;;;;;;;;6.80;99.90;;;;;;5036011;28;19929;-68
2021/03/19 13:53:47;;;;;;;;;;;7.00;99.90;;;;;;5035686;28;19934;-67
2021/03/19 13:56:15;;;;;;;;;;;7.00;99.90;;;;;;5035770;28;19981;-67
2021/03/19 13:58:41;;;;;;;;;;;7.20;99.90;;;;;;5035307;28;20384;-68
2021/03/19 14:01:08;;;;;;;;;;;6.90;99.90;;;;;;5038308;28;19925;-68
2021/03/19 14:03:34;;;;;;;;;;;7.00;99.90;;;;;;5041036;28;19932;-68
2021/03/19 14:06:01;;;;;;;;;;;7.10;99.90;;;;;;5035859;28;19925;-68
2021/03/19 14:08:28;;;;;;;;;;;7.10;99.90;;;;;;5034778;28;20327;-68
2021/03/19 14:10:55;;;;;;;;;;;6.60;99.90;;;;;;5035319;28;19995;-67
2021/03/19 14:13:23;;;;;;;;;;;6.30;99.90;;;;;;5035449;28;20320;-67
2021/03/19 14:15:49;;;;;;;;;;;6.20;99.90;;;;;;5035368;28;20330;-66
2021/03/19 14:18:15;;;;;;;;;;;6.20;99.90;;;;;;5035403;28;19925;-67
2021/03/19 14:20:43;;;;;;;;;;;6.00;99.90;;;;;;5035071;28;20396;-67
2021/03/19 14:23:09;;;;;;;;;;;5.60;99.90;;;;;;5034808;28;20019;-67
2021/03/19 14:25:36;;;;;;;;;;;5.40;99.90;;;;;;5034991;28;20312;-68
2021/03/19 14:28:03;;;;;;;;;;;5.30;99.90;;;;;;5035292;28;19925;-66
2021/03/19 14:30:31;;;;;;;;;;;5.10;99.90;;;;;;5035030;28;20391;-67
2021/03/19 14:32:57;;;;;;;;;;;5.00;99.90;;;;;;5035203;28;19925;-66
2021/03/19 14:35:24;;;;;;;;;;;4.90;99.90;;;;;;5035123;28;19925;-66
2021/03/19 14:37:50;;;;;;;;;;;4.80;99.90;;;;;;5034905;28;19925;-66
2021/03/19 14:40:18;;;;;;;;;;;4.80;99.90;;;;;;5035035;28;19932;-67
2021/03/19 14:42:44;;;;;;;;;;;4.80;99.90;;;;;;5036851;28;19929;-67
2021/03/19 14:45:10;;;;;;;;;;;4.70;99.90;;;;;;5042031;28;19925;-67
2021/03/19 14:47:37;;;;;;;;;;;4.50;99.90;;;;;;5035845;28;19925;-68
2021/03/19 14:50:03;;;;;;;;;;;4.40;99.90;;;;;;5036515;28;19925;-67
2021/03/19 14:52:29;;;;;;;;;;;4.50;99.90;;;;;;5036824;28;19932;-67
2021/03/19 14:54:56;;;;;;;;;;;4.60;99.90;;;;;;5037751;28;19925;-66
2021/03/19 14:57:22;;;;;;;;;;;4.60;99.90;;;;;;5036633;28;19932;-69
2021/03/19 14:59:48;;;;;;;;;;;4.50;99.90;;;;;;5035139;28;19925;-67
2021/03/19 15:02:14;;;;;;;;;;;4.60;99.90;;;;;;5034906;28;19929;-67
2021/03/19 15:04:41;;;;;;;;;;;4.60;99.90;;;;;;5034510;28;19925;-68
2021/03/19 15:07:08;;;;;;;;;;;4.60;99.90;;;;;;5034588;28;19928;-69
2021/03/19 15:09:34;;;;;;;;;;;4.70;99.90;;;;;;5033953;28;19932;-67
2021/03/19 15:12:00;;;;;;;;;;;4.80;99.90;;;;;;5034442;28;20300;-66
2021/03/19 15:14:26;;;;;;;;;;;4.80;99.90;;;;;;5034000;28;19990;-67
2021/03/19 15:16:52;;;;;;;;;;;4.90;99.90;;;;;;5034064;28;19929;-66
2021/03/19 15:19:18;;;;;;;;;;;5.00;99.90;;;;;;5034189;28;19932;-66
2021/03/19 15:21:45;;;;;;;;;;;5.20;99.90;;;;;;5037678;28;19925;-67
2021/03/19 15:24:11;;;;;;;;;;;5.30;99.90;;;;;;5038142;28;20294;-67
2021/03/19 15:26:37;;;;;;;;;;;5.40;99.90;;;;;;5037887;28;20414;-67
2021/03/19 15:29:05;;;;;;;;;;;5.50;99.90;;;;;;5038041;28;19925;-66
2021/03/19 15:31:31;;;;;;;;;;;5.50;99.90;;;;;;5038252;28;20012;-66
2021/03/19 15:33:57;;;;;;;;;;;5.50;99.90;;;;;;5038159;28;20296;-66
2021/03/19 15:36:23;;;;;;;;;;;5.80;99.90;;;;;;5037991;28;19971;-66
2021/03/19 15:38:50;;;;;;;;;;;5.80;99.90;;;;;;5037903;28;20300;-67
2021/03/19 15:41:18;;;;;;;;;;;6.10;99.90;;;;;;5037663;28;19951;-67
2021/03/19 15:43:44;;;;;;;;;;;6.20;99.90;;;;;;5037786;28;19932;-66
2021/03/19 15:46:10;;;;;;;;;;;6.40;99.90;;;;;;5037753;28;19947;-68
2021/03/19 15:48:37;;;;;;;;;;;6.60;99.90;;;;;;5037811;28;19929;-66
2021/03/19 15:51:04;;;;;;;;;;;6.70;99.90;;;;;;5037810;28;19932;-68
2021/03/19 15:53:31;;;;;;;;;;;6.60;99.90;;;;;;5037682;28;19997;-67
2021/03/19 15:55:58;;;;;;;;;;;6.60;99.90;;;;;;5037497;28;19925;-67
2021/03/19 15:58:24;;;;;;;;;;;6.60;99.90;;;;;;5037626;28;20391;-66
2021/03/19 16:00:50;;;;;;;;;;;6.20;99.90;;;;;;5037469;28;20032;-68
2021/03/19 16:03:18;;;;;;;;;;;6.10;99.90;;;;;;5037445;28;19929;-66
2021/03/19 16:05:45;;;;;;;;;;;6.10;99.90;;;;;;5037741;28;19925;-67
2021/03/19 16:08:12;;;;;;;;;;;6.00;99.90;;;;;;5039644;28;19925;-67
2021/03/19 16:10:39;;;;;;;;;;;6.00;99.90;;;;;;5038521;28;19930;-66
2021/03/19 16:13:07;;;;;;;;;;;5.80;99.90;;;;;;5037657;28;19932;-67
2021/03/19 16:15:33;;;;;;;;;;;5.80;99.90;;;;;;5037530;28;20288;-67
2021/03/19 16:18:00;;;;;;;;;;;5.90;99.90;;;;;;5038072;28;19986;-67
2021/03/19 16:20:29;;;;;;;;;;;5.90;99.90;;;;;;5039045;28;19948;-67
2021/03/19 16:22:55;;;;;;;;;;;5.80;99.90;;;;;;5048487;28;19996;-67
2021/03/19 16:25:23;;;;;;;;;;;5.90;99.90;;;;;;5042310;28;19929;-67
2021/03/19 16:27:50;;;;;;;;;;;5.80;99.90;;;;;;5037570;28;20354;-67
2021/03/19 16:30:18;;;;;;;;;;;5.80;99.90;;;;;;5038421;28;19925;-66
2021/03/19 16:32:44;;;;;;;;;;;5.80;99.90;;;;;;5036712;28;19955;-66
2021/03/19 16:35:10;;;;;;;;;;;5.80;99.90;;;;;;5036754;28;20403;-66
2021/03/19 16:37:36;;;;;;;;;;;5.90;99.90;;;;;;5036915;28;19925;-67
2021/03/19 16:40:03;;;;;;;;;;;5.90;99.90;;;;;;5036984;28;19969;-67
2021/03/19 16:42:29;;;;;;;;;;;5.80;99.90;;;;;;5036855;28;19925;-67
2021/03/19 16:44:55;;;;;;;;;;;5.50;99.90;;;;;;5036832;28;19925;-67
2021/03/19 16:47:22;;;;;;;;;;;5.30;99.90;;;;;;5036704;28;19941;-67
2021/03/19 16:49:48;;;;;;;;;;;5.10;99.90;;;;;;5036825;28;19932;-67
2021/03/19 16:52:14;;;;;;;;;;;4.80;99.90;;;;;;5037123;28;19925;-68
2021/03/19 16:54:40;;;;;;;;;;;4.80;99.90;;;;;;5036686;28;19925;-68
2021/03/19 16:57:06;;;;;;;;;;;4.60;99.90;;;;;;5036581;28;19929;-68
2021/03/19 16:59:32;;;;;;;;;;;4.50;99.90;;;;;;5036218;28;20376;-68
2021/03/19 17:01:58;;;;;;;;;;;4.30;99.90;;;;;;5036255;28;19926;-68
2021/03/19 17:04:25;;;;;;;;;;;4.20;99.90;;;;;;5036499;28;20273;-68
2021/03/19 17:06:51;;;;;;;;;;;4.10;99.90;;;;;;5036431;28;19932;-67
2021/03/19 17:09:17;;;;;;;;;;;4.10;99.90;;;;;;5040530;22;20310;-66
2021/03/19 17:11:43;;;;;;;;;;;4.10;99.90;;;;;;5017037;28;19956;-67
2021/03/19 17:14:09;;;;;;;;;;;4.10;99.90;;;;;;5016790;28;19925;-66
2021/03/19 17:16:35;;;;;;;;;;;4.20;99.90;;;;;;5016540;28;19949;-66
2021/03/19 17:19:02;;;;;;;;;;;4.30;99.90;;;;;;5016344;28;19925;-66
2021/03/19 17:21:28;;;;;;;;;;;4.40;99.90;;;;;;5016235;28;19925;-66
2021/03/19 17:23:54;;;;;;;;;;;4.50;99.90;;;;;;5016380;28;19948;-66
2021/03/19 17:26:21;;;;;;;;;;;4.50;99.90;;;;;;5016391;28;19932;-66
2021/03/19 17:28:48;;;;;;;;;;;4.50;99.90;;;;;;5016291;28;19925;-65
2021/03/19 17:31:14;;;;;;;;;;;4.50;99.90;;;;;;5016048;28;19926;-66
2021/03/19 17:33:41;;;;;;;;;;;4.60;99.90;;;;;;5016118;28;20414;-66
2021/03/19 17:36:08;;;;;;;;;;;4.60;99.90;;;;;;5016092;28;19936;-65
2021/03/19 17:38:35;;;;;;;;;;;4.50;99.90;;;;;;5016015;28;19972;-66
2021/03/19 17:41:02;;;;;;;;;;;4.30;99.90;;;;;;5015498;28;19932;-66
2021/03/19 17:43:30;;;;;;;;;;;4.30;99.90;;;;;;5014882;28;20316;-65
2021/03/19 17:45:57;;;;;;;;;;;4.20;99.90;;;;;;5015423;28;20384;-66
2021/03/19 17:48:26;;;;;;;;;;;4.30;99.90;;;;;;5015384;28;19925;-66
2021/03/19 17:50:53;;;;;;;;;;;4.20;99.90;;;;;;5015219;28;19926;-66
2021/03/19 17:53:20;;;;;;;;;;;4.10;99.90;;;;;;5015158;28;19925;-65
2021/03/19 17:55:47;;;;;;;;;;;4.10;99.90;;;;;;5015057;28;19925;-65
2021/03/19 17:58:13;;;;;;;;;;;4.10;99.90;;;;;;5015148;28;20399;-65
2021/03/19 18:00:39;;;;;;;;;;;4.10;99.90;;;;;;5015427;28;20067;-66
2021/03/19 18:03:05;;;;;;;;;;;4.10;99.90;;;;;;5015067;28;19925;-65
2021/03/19 18:05:32;;;;;;;;;;;4.20;99.90;;;;;;5015166;28;19949;-65
2021/03/19 18:07:58;;;;;;;;;;;4.10;99.90;;;;;;5014972;28;19926;-65
2021/03/19 18:10:25;;;;;;;;;;;4.10;99.90;;;;;;5014754;28;20018;-65
2021/03/19 18:12:52;;;;;;;;;;;4.00;99.90;;;;;;5015041;28;19925;-65
2021/03/19 18:15:19;;;;;;;;;;;3.90;99.90;;;;;;5015078;28;19925;-65
2021/03/19 18:17:49;;;;;;;;;;;3.90;99.90;;;;;;5014635;28;19925;-66
2021/03/19 18:20:15;;;;;;;;;;;3.90;99.90;;;;;;5014651;28;20411;-66
2021/03/19 18:22:41;;;;;;;;;;;3.90;99.90;;;;;;5015530;28;19926;-67
2021/03/19 18:25:09;;;;;;;;;;;3.80;99.90;;;;;;5016077;28;19926;-65
2021/03/19 18:27:36;;;;;;;;;;;3.80;99.90;;;;;;5015647;28;19925;-66
2021/03/19 18:30:03;;;;;;;;;;;3.80;99.90;;;;;;5015624;28;19925;-66
2021/03/19 18:32:30;;;;;;;;;;;3.70;99.90;;;;;;5015016;28;20320;-66
2021/03/19 18:34:56;;;;;;;;;;;3.60;99.90;;;;;;5016420;28;19926;-66
2021/03/19 18:37:22;;;;;;;;;;;3.60;99.90;;;;;;5016292;28;19929;-69
2021/03/19 18:39:48;;;;;;;;;;;3.60;99.90;;;;;;5015921;28;19925;-66
2021/03/19 18:42:16;;;;;;;;;;;3.60;99.90;;;;;;5015552;28;19937;-67
2021/03/19 18:44:42;;;;;;;;;;;3.50;99.90;;;;;;5014993;28;20426;-67
2021/03/19 18:47:09;;;;;;;;;;;3.50;99.90;;;;;;5015540;28;20312;-67
2021/03/19 18:49:35;;;;;;;;;;;3.40;99.90;;;;;;5015493;28;19926;-67
2021/03/19 18:52:02;;;;;;;;;;;3.40;99.90;;;;;;5015414;28;19975;-67
2021/03/19 18:54:31;;;;;;;;;;;3.30;99.90;;;;;;5014732;28;19925;-67
2021/03/19 18:56:57;;;;;;;;;;;3.30;99.90;;;;;;5015298;28;19926;-66
2021/03/19 18:59:23;;;;;;;;;;;3.20;99.90;;;;;;5015133;28;19929;-68
2021/03/19 19:01:50;;;;;;;;;;;3.10;99.90;;;;;;5015767;28;19929;-66
2021/03/19 19:04:18;;;;;;;;;;;3.10;99.90;;;;;;5016279;28;20020;-67
2021/03/19 19:06:44;;;;;;;;;;;3.10;99.90;;;;;;5017125;28;19925;-66
2021/03/19 19:09:10;;;;;;;;;;;3.10;99.90;;;;;;5016286;28;19925;-67
2021/03/19 19:11:36;;;;;;;;;;;3.10;99.90;;;;;;5017087;28;20330;-66
2021/03/19 19:14:03;;;;;;;;;;;3.10;99.90;;;;;;5017142;28;19936;-66
2021/03/19 19:16:29;;;;;;;;;;;3.10;99.90;;;;;;5016840;28;19933;-66
2021/03/19 19:18:55;;;;;;;;;;;3.00;99.90;;;;;;5016935;28;19940;-68
2021/03/19 19:21:22;;;;;;;;;;;3.00;99.90;;;;;;5015764;28;19925;-67
2021/03/19 19:23:48;;;;;;;;;;;3.00;99.90;;;;;;5014997;28;19926;-66
2021/03/19 19:26:14;;;;;;;;;;;3.00;99.90;;;;;;5015144;28;19926;-67
2021/03/19 19:28:40;;;;;;;;;;;2.90;99.90;;;;;;5015097;28;19933;-68
2021/03/19 19:31:07;;;;;;;;;;;2.90;99.90;;;;;;5014728;28;20368;-68
2021/03/19 19:33:34;;;;;;;;;;;2.80;99.90;;;;;;5015268;28;19929;-67
2021/03/19 19:36:00;;;;;;;;;;;2.80;99.90;;;;;;5014966;28;19926;-67
2021/03/19 19:38:28;;;;;;;;;;;2.80;99.90;;;;;;5014678;28;19925;-66